Tiempo atmosférico en la estación meteorológica de Cabo de Gata, Almería (42 m.)



Fecha
DESCASC
Temp. máxima en grados centígrados (hora)
DESCASC
Temp. mínima en grados centígrados (hora)
DESCASC
Temp. media en grados centígrados
DESCASC
Racha de viento máxima en m/sg (hora)
DESCASC
Velocidad máxima media en intervalos de 10 minutos(hora)
DESCASC
Precipitaciones diarias en mm
DESCASC
Precipitaciones de 00:00 a 06:00 en mm
DESCASC
Precipitaciones de 06:00 a 12:00 en mm
DESCASC
Precipitaciones de 12:00 a 18:00 en mm
DESCASC
Precipitaciones de 18:00 a 24:00 en mm
DESCASC
05-04-2020 18.3 (12:20) 14.5 (05:30) 16.4 16.39 (15:40) 10.56 (18:30) -- -- -- -- --
04-04-2020 17.8 (15:30) 13.7 (07:30) 15.7 22.22 (21:30) 14.72 (21:30) -- -- -- -- --
03-04-2020 19.7 (13:10) 12.4 (00:50) 16.1 6.39 (01:40) 4.17 (21:40) -- -- -- -- --
02-04-2020 15.6 (10:20) 12.5 (00:00) 14.1 21.39 (12:40) 14.17 (11:10) -- -- -- -- --
01-04-2020 18.4 (14:00) 14.6 (00:00) 16.5 15.28 (17:40) 9.17 (17:40) -- -- -- -- --
31-03-2020 16.5 (14:30) 12.5 (00:00) 14.5 12.78 (02:10) 8.89 (02:00) -- -- -- -- --
30-03-2020 19.7 (15:00) 14.4 (00:00) 17.1 9.72 (23:59) 8.06 (23:59) -- -- -- -- --
29-03-2020 18.7 (13:20) 12 (00:00) 15.4 7.5 (09:20) 5.83 (09:10) -- -- -- -- --
28-03-2020 16 (13:20) 11.5 (00:00) 13.8 15.83 (15:30) 11.39 (16:10) -- -- -- -- --
27-03-2020 15.5 (13:50) 12.7 (00:00) 14.1 18.61 (00:10) 14.17 (00:40) -- -- -- -- --
26-03-2020 18.6 (14:10) 13.3 (00:00) 16 17.78 (23:30) 12.78 (23:30) -- -- -- -- --
25-03-2020 14.6 (16:10) 12.2 (00:00) 13.4 17.22 (04:40) 10 (04:00) -- -- -- -- --
24-03-2020 15.6 (10:50) 13.1 (00:00) 14.4 25.28 (07:50) 14.44 (00:40) -- -- -- -- --
23-03-2020 16.6 (13:00) 12.2 (00:00) 14.4 22.5 (19:50) 12.5 (22:10) -- -- -- -- --
22-03-2020 14.6 (00:20) 11.6 (09:20) 13.1 12.22 (02:20) 8.89 (02:20) -- -- -- -- --
21-03-2020 17 (15:30) 11.8 (00:00) 14.4 18.89 (21:40) 13.61 (22:10) -- -- -- -- --
20-03-2020 17.9 (15:10) 14.8 (00:00) 16.3 22.22 (18:30) 14.44 (17:40) -- -- -- -- --
19-03-2020 18.2 (12:40) 15.3 (00:00) 16.8 24.72 (15:10) 15.56 (16:10) -- -- -- -- --
18-03-2020 18.2 (14:00) 14.7 (00:00) 16.5 23.33 (15:10) 12.5 (15:20) -- -- -- -- --
17-03-2020 17.1 (18:00) 13.3 (00:00) 15.2 25 (21:30) 13.06 (22:30) -- -- -- -- --
16-03-2020 17.5 (12:00) 15 (00:00) 16.3 12.78 (18:40) 7.22 (18:50) -- -- -- -- --
15-03-2020 17.5 (10:50) 14.4 (00:00) 15.9 13.33 (11:40) 10 (13:40) -- -- -- -- --
14-03-2020 17.6 (10:10) 15 (00:00) 16.3 15.56 (15:40) 10 (15:40) -- -- -- -- --
13-03-2020 19.7 (09:40) 15.9 (23:59) 17.8 15.28 (15:40) 10.83 (14:00) -- -- -- -- --
12-03-2020 23.8 (13:00) 16.4 (00:00) 20.1 11.39 (14:00) 8.89 (14:10) -- -- -- -- --
11-03-2020 22 (15:40) 15 (00:00) 18.5 8.33 (05:00) 5.28 (04:40) -- -- -- -- --
10-03-2020 18.8 (10:50) 14.6 (00:00) 16.7 12.5 (10:10) 8.61 (10:00) -- -- -- -- --
09-03-2020 20.3 (14:40) 13.9 (00:00) 17.1 11.94 (01:40) 8.33 (01:50) -- -- -- -- --

Gráficas

Temp. máximas Temp. mínimas Temp. medias Precipitaciones Rachas de viento máximas Velocidades máximas media en intervalos de 10 minutos

Datos horarios

Fecha y hora oficial Temperatura (ºC) Velocidad del viento (km/h) Dirección del viento Racha (km/h) Dirección de racha Precipitación (mm) Presión (hPa) Tendencia (hPa) Humedad (%)
2020-04-07 23:00:00 15.8 31 Nordeste 47 Nordeste -- -- -- 74
2020-04-07 22:00:00 15.9 30 Nordeste 48 Nordeste -- -- -- 74
2020-04-07 21:00:00 15.9 35 Este 53 Nordeste -- -- -- 76
2020-04-07 20:00:00 16.3 41 Nordeste 56 Nordeste -- -- -- 74
2020-04-07 19:00:00 16.8 36 Nordeste 54 Este -- -- -- 72
2020-04-07 18:00:00 17.2 34 Este 52 Este -- -- -- 69
2020-04-07 17:00:00 17.6 31 Este 60 Este -- -- -- 65
2020-04-07 16:00:00 17.7 33 Este 51 Este -- -- -- 67
2020-04-07 15:00:00 17.7 28 Este 48 Este -- -- -- 70
2020-04-07 14:00:00 17.6 36 Este 51 Este -- -- -- 69
2020-04-07 13:00:00 17.5 35 Este 53 Este -- -- -- 69
2020-04-07 12:00:00 17.3 24 Este 44 Este -- -- -- 73
2020-04-07 11:00:00 17.2 21 Este 41 Este -- -- -- 74
2020-04-07 10:00:00 16.5 26 Nordeste 36 Nordeste -- -- -- 77
2020-04-07 09:00:00 15.3 14 Nordeste 40 Este -- -- -- 81
2020-04-07 08:00:00 14.9 25 Nordeste 37 Nordeste -- -- -- 81
2020-04-07 07:00:00 14.8 6 Nordeste 28 Este -- -- -- 81
2020-04-07 06:00:00 14.8 4 Oeste 16 Nordeste -- -- -- 81
2020-04-07 05:00:00 14.8 3 Noroeste 11 Este -- -- -- 80
2020-04-07 04:00:00 14.9 7 Nordeste 16 Este -- -- -- 80
2020-04-07 03:00:00 15 5 Noroeste 11 Este -- -- -- 79
2020-04-07 02:00:00 15 2 Norte 9 Norte -- -- -- 79
2020-04-07 01:00:00 15.4 5 Norte 15 Nordeste -- -- -- 78
2020-04-07 00:00:00 15.9 5 Este 17 Nordeste -- -- -- 76
2020-04-06 23:00:00 15.9 11 Nordeste 17 Nordeste -- -- -- 77
2020-04-06 22:00:00 15.8 9 Este 25 Nordeste -- -- -- 77
2020-04-06 21:00:00 15.8 18 Nordeste 27 Este -- -- -- 76
2020-04-06 20:00:00 15.9 22 Este 31 Este -- -- -- 76
2020-04-06 19:00:00 16 24 Este 31 Este -- -- -- 75
2020-04-06 18:00:00 16.3 22 Este 32 Este -- -- -- 76
2020-04-06 17:00:00 16.4 26 Este 38 Este -- -- -- 74
2020-04-06 16:00:00 16.8 26 Este 33 Este -- -- -- 72
2020-04-06 15:00:00 17 25 Este 30 Este -- -- -- 71
2020-04-06 14:00:00 16.8 23 Este 30 Este -- -- -- 72
2020-04-06 13:00:00 16.6 25 Este 45 Este -- -- -- 73
2020-04-06 12:00:00 16.3 28 Este 34 Este -- -- -- 74
2020-04-06 11:00:00 16.3 21 Este 26 Este -- -- -- 74
2020-04-06 10:00:00 16.2 15 Este 28 Este -- -- -- 75
2020-04-06 09:00:00 15.4 15 Nordeste 25 Nordeste -- -- -- 77
2020-04-06 08:00:00 14.4 17 Nordeste 28 Nordeste -- -- -- 78
2020-04-06 07:00:00 14.3 16 Nordeste 22 Nordeste -- -- -- 78
2020-04-06 06:00:00 14 9 Nordeste 16 Nordeste -- -- -- 78
2020-04-06 05:00:00 14.1 5 Norte 10 Nordeste -- -- -- 78
2020-04-06 04:00:00 14.2 3 Norte 13 Nordeste -- -- -- 78
2020-04-06 03:00:00 14.3 3 Norte 8 Noroeste -- -- -- 78
2020-04-06 02:00:00 14.4 4 Norte 8 Nordeste -- -- -- 76
2020-04-06 01:00:00 14.6 4 Norte 9 Norte -- -- -- 75
2020-04-06 00:00:00 14.7 4 Noroeste 12 Este -- -- -- 75
2020-04-05 23:00:00 15 6 Nordeste 14 Nordeste -- -- -- 74
2020-04-05 22:00:00 15.1 3 Nordeste 30 Este -- -- -- 74
2020-04-05 21:00:00 15.3 21 Nordeste 44 Nordeste -- -- -- 74
2020-04-05 20:00:00 15.6 29 Nordeste 46 Nordeste -- -- -- 72
2020-04-05 19:00:00 16 32 Nordeste 53 Nordeste -- -- -- 71
2020-04-05 18:00:00 16.4 31 Nordeste 51 Nordeste -- -- -- 69
2020-04-05 17:00:00 16.9 35 Nordeste 58 Nordeste -- -- -- 68
2020-04-05 16:00:00 17.3 34 Nordeste 59 Este -- -- -- 66
2020-04-05 15:00:00 17.6 33 Este 52 Nordeste -- -- -- 65
2020-04-05 14:00:00 18 31 Este 50 Nordeste -- -- -- 62
2020-04-05 13:00:00 18 34 Nordeste 46 Nordeste -- -- -- 59
2020-04-05 12:00:00 18.1 20 Nordeste 47 Este -- -- -- 58
2020-04-05 11:00:00 16.8 19 Norte 51 Nordeste -- -- -- 63
2020-04-05 10:00:00 16.1 17 Nordeste 54 Norte -- -- -- 68
2020-04-05 09:00:00 14.8 22 Norte 44 Norte -- -- -- 71
2020-04-05 08:00:00 14.6 20 Norte 44 Norte -- -- -- 71
2020-04-05 07:00:00 14.6 20 Norte 41 Norte -- -- -- 71
2020-04-05 06:00:00 14.5 17 Norte 38 Norte -- -- -- 72
2020-04-05 05:00:00 14.6 15 Norte 39 Nordeste -- -- -- 71
2020-04-05 04:00:00 14.7 24 Norte 46 Nordeste -- -- -- 72
2020-04-05 03:00:00 14.8 24 Nordeste 45 Nordeste -- -- -- 73
2020-04-05 02:00:00 15 21 Norte 44 Nordeste -- -- -- 73
2020-04-05 01:00:00 15.1 24 Nordeste 55 Nordeste -- -- -- 73
2020-04-05 00:00:00 15.4 32 Nordeste 59 Nordeste -- -- -- 74
2020-04-04 23:00:00 15.6 32 Nordeste 57 Nordeste -- -- -- 73
2020-04-04 22:00:00 15.7 40 Nordeste 80 Nordeste -- -- -- 72
2020-04-04 21:00:00 15.7 34 Nordeste 60 Este -- -- -- 72
2020-04-04 20:00:00 16.1 28 Norte 50 Nordeste -- -- -- 70
2020-04-04 19:00:00 16.6 27 Nordeste 50 Nordeste -- -- -- 69
2020-04-04 18:00:00 17 27 Nordeste 66 Nordeste -- -- -- 67
2020-04-04 17:00:00 17.3 31 Nordeste 57 Nordeste -- -- -- 66
2020-04-04 16:00:00 17.3 23 Nordeste 66 Nordeste -- -- -- 66
2020-04-04 15:00:00 17.3 40 Nordeste 69 Nordeste -- -- -- 65
2020-04-04 14:00:00 17.1 37 Nordeste 67 Nordeste -- -- -- 64
2020-04-04 13:00:00 16.8 43 Nordeste 68 Este -- -- -- 65
2020-04-04 12:00:00 16.6 41 Nordeste 67 Nordeste -- -- -- 66
2020-04-04 11:00:00 16.3 33 Nordeste 53 Nordeste -- -- -- 68
2020-04-04 10:00:00 15.5 24 Nordeste 41 Nordeste -- -- -- 74
2020-04-04 09:00:00 14.3 15 Nordeste 37 Nordeste -- -- -- 76
2020-04-04 08:00:00 13.8 17 Nordeste 41 Nordeste -- -- -- 76
2020-04-04 07:00:00 13.8 21 Nordeste 36 Nordeste -- -- -- 76
2020-04-04 06:00:00 14.1 21 Nordeste 37 Este -- -- -- 75
2020-04-04 05:00:00 14.3 20 Nordeste 33 Nordeste -- -- -- 74
2020-04-04 04:00:00 14.3 14 Nordeste 24 Nordeste -- -- -- 73
2020-04-04 03:00:00 14.4 11 Nordeste 21 Nordeste -- -- -- 73
2020-04-04 02:00:00 14.4 10 Norte 16 Nordeste -- -- -- 72
2020-04-04 01:00:00 14.4 8 Nordeste 17 Nordeste -- -- -- 71
2020-04-04 00:00:00 14.7 10 Nordeste 17 Nordeste -- -- -- 70
2020-04-03 23:00:00 14.9 11 Nordeste 17 Este -- -- -- 69
2020-04-03 22:00:00 15.2 15 Este 21 Este -- -- -- 70
2020-04-03 21:00:00 15.4 12 Este 16 Este -- -- -- 71
2020-04-03 20:00:00 16.1 8 Este 14 Este -- -- -- 69
2020-04-03 19:00:00 16.6 7 Este 14 Este -- -- -- 68
2020-04-03 18:00:00 17.1 5 Este 13 Este -- -- -- 67
2020-04-03 17:00:00 18.1 4 Sudeste 11 Este -- -- -- 62
2020-04-03 16:00:00 19.2 4 Sudeste 13 Este -- -- -- 59
2020-04-03 15:00:00 19 7 Este 16 Este -- -- -- 57
2020-04-03 14:00:00 19 6 Sudeste 12 Este -- -- -- 58
2020-04-03 13:00:00 19.4 4 Sudeste 11 Sudeste -- -- -- 59
2020-04-03 12:00:00 18.3 4 Sudeste 7 Sudeste -- -- -- 61
2020-04-03 11:00:00 16.8 3 Oeste 8 Oeste -- -- -- 66
2020-04-03 10:00:00 15.6 0 Calma 5 Este -- -- -- 67
2020-04-03 09:00:00 13.2 4 Norte 10 Norte -- -- -- 66
2020-04-03 08:00:00 12.6 7 Norte 13 Norte -- -- -- 68
2020-04-03 07:00:00 12.7 6 Norte 13 Norte -- -- -- 70
2020-04-03 06:00:00 12.6 9 Norte 17 Norte -- -- -- 70
2020-04-03 05:00:00 12.4 12 Norte 16 Norte -- -- -- 70
2020-04-03 04:00:00 13.2 4 Sudoeste 14 Nordeste -- -- -- 68
2020-04-03 03:00:00 13.4 4 Norte 19 Norte -- -- -- 69
2020-04-03 02:00:00 13.7 8 Norte 23 Noroeste -- -- -- 69
2020-04-03 01:00:00 12.4 6 Norte 16 Norte -- -- -- 71
2020-04-03 00:00:00 12.6 10 Norte 24 Noroeste -- -- -- 73
2020-04-02 23:00:00 12.9 12 Noroeste 18 Oeste -- -- -- 72
2020-04-02 22:00:00 12.8 10 Noroeste 26 Noroeste -- -- -- 70
2020-04-02 21:00:00 13.5 16 Oeste 36 Oeste -- -- -- 70
2020-04-02 20:00:00 14.1 9 Sudoeste 25 Oeste -- -- -- 69
2020-04-02 19:00:00 14.1 7 Sudeste 18 Sur -- -- -- 67
2020-04-02 18:00:00 13.9 8 Sur 15 Sudoeste -- -- -- 67
2020-04-02 17:00:00 13.9 6 Sur 31 Sudoeste -- -- -- 70
2020-04-02 16:00:00 15.4 8 Oeste 20 Sudoeste -- -- -- 69
2020-04-02 15:00:00 14 6 Noroeste 37 Noroeste -- -- -- 75
2020-04-02 14:00:00 13 26 Oeste 50 Oeste -- -- -- 75
2020-04-02 13:00:00 14.1 32 Oeste 77 Oeste -- -- -- 71
2020-04-02 12:00:00 13.5 39 Oeste 64 Oeste -- -- -- 76
2020-04-02 11:00:00 14.5 44 Oeste 66 Oeste -- -- -- 72
2020-04-02 10:00:00 15.5 13 Oeste 22 Oeste -- -- -- 72
2020-04-02 09:00:00 15 12 Oeste 30 Oeste -- -- -- 75
2020-04-02 08:00:00 13.6 9 Noroeste 22 Noroeste -- -- -- 74
2020-04-02 07:00:00 13.8 17 Noroeste 26 Noroeste -- -- -- 76
2020-04-02 06:00:00 14.1 15 Oeste 28 Noroeste -- -- -- 77
2020-04-02 05:00:00 14.1 13 Oeste 19 Noroeste -- -- -- 78
2020-04-02 04:00:00 14.5 10 Oeste 28 Oeste -- -- -- 79
2020-04-02 03:00:00 14.6 15 Noroeste 31 Oeste -- -- -- 79
2020-04-02 02:00:00 15.2 18 Oeste 40 Oeste -- -- -- 77
2020-04-02 01:00:00 15.3 23 Sudoeste 51 Oeste -- -- -- 77
2020-04-02 00:00:00 15.5 27 Oeste 47 Oeste -- -- -- 77
2020-04-01 23:00:00 15.6 28 Oeste 45 Oeste -- -- -- 78
2020-04-01 22:00:00 15.5 25 Oeste 44 Sudoeste -- -- -- 79
2020-04-01 21:00:00 15.6 24 Oeste 48 Sudoeste -- -- -- 77
2020-04-01 20:00:00 16 27 Oeste 49 Sudoeste -- -- -- 76
2020-04-01 19:00:00 16.1 30 Oeste 51 Sudoeste -- -- -- 78
2020-04-01 18:00:00 16.3 25 Oeste 55 Sudoeste -- -- -- 76
2020-04-01 17:00:00 17.3 22 Oeste 40 Sudoeste -- -- -- 74
2020-04-01 16:00:00 18.1 12 Oeste 30 Oeste -- -- -- 74
2020-04-01 15:00:00 18.4 10 Oeste 30 Sudoeste -- -- -- 75
2020-04-01 14:00:00 18.4 10 Oeste 31 Sudoeste -- -- -- 77
2020-04-01 13:00:00 17.5 15 Oeste 32 Sudoeste -- -- -- 81
2020-04-01 12:00:00 17 15 Oeste 33 Sudoeste -- -- -- 83
2020-04-01 11:00:00 16 13 Oeste 26 Oeste -- -- -- 86
2020-04-01 10:00:00 15.1 8 Oeste 27 Sudoeste -- -- -- 85
2020-04-01 09:00:00 15.1 10 Oeste 27 Sudoeste -- -- -- 85
2020-04-01 08:00:00 14.9 13 Oeste 31 Oeste -- -- -- 83
2020-04-01 07:00:00 15.1 18 Oeste 31 Oeste -- -- -- 82
2020-04-01 06:00:00 15.1 19 Oeste 41 Noroeste -- -- -- 83
2020-04-01 05:00:00 15 9 Sudoeste 21 Sudoeste -- -- -- 85
2020-04-01 04:00:00 15.3 7 Oeste 15 Sur -- -- -- 86
2020-04-01 03:00:00 15.7 5 Sudoeste 17 Oeste -- -- -- 86
2020-04-01 02:00:00 15.6 6 Sur 14 Sur -- -- -- 85
2020-04-01 01:00:00 15.6 4 Sudeste 10 Sur -- -- -- 85
2020-04-01 00:00:00 15.9 4 Sudeste 8 Sur -- -- -- 85
2020-03-31 23:00:00 16 4 Oeste 20 Oeste -- -- -- 84
2020-03-31 22:00:00 15.4 11 Oeste 20 Noroeste -- -- -- 84
2020-03-31 21:00:00 15.7 4 Este 21 Este -- -- -- 84
2020-03-31 20:00:00 15.8 17 Este 24 Este -- -- -- 83
2020-03-31 19:00:00 15.9 17 Este 26 Este -- -- -- 82
2020-03-31 18:00:00 16 18 Este 24 Este -- -- -- 81
2020-03-31 17:00:00 15.9 19 Este 38 Este -- -- -- 80
2020-03-31 16:00:00 16.1 25 Este 31 Este -- -- -- 78
2020-03-31 15:00:00 15.9 25 Este 35 Este -- -- -- 77
2020-03-31 14:00:00 16.1 27 Este 36 Este -- -- -- 77
2020-03-31 13:00:00 16.1 20 Este 36 Este -- -- -- 77
2020-03-31 12:00:00 16 21 Este 30 Este -- -- -- 79
2020-03-31 11:00:00 14.4 2 Este 11 Oeste -- -- -- 82
2020-03-31 10:00:00 14.1 3 Sudeste 26 Nordeste -- -- -- 82
2020-03-31 09:00:00 12.9 10 Nordeste 26 Este -- -- -- 84
2020-03-31 08:00:00 12.6 10 Norte 40 Norte -- -- -- 84
2020-03-31 07:00:00 13.7 21 Noroeste 38 Norte -- -- -- 79
2020-03-31 06:00:00 14.4 13 Noroeste 41 Nordeste -- -- -- 78
2020-03-31 05:00:00 14.5 23 Norte 45 Norte -- -- -- 78
2020-03-31 04:00:00 14.7 30 Nordeste 44 Nordeste -- -- -- 79
2020-03-31 03:00:00 14.8 22 Nordeste 46 Este -- -- -- 80
2020-03-31 02:00:00 15 32 Nordeste 42 Nordeste -- -- -- 81
2020-03-31 01:00:00 15.2 24 Nordeste 35 Este -- -- -- 83
2020-03-31 00:00:00 15.5 29 Este 35 Este -- -- -- 82
2020-03-30 23:00:00 15.8 15 Este 24 Este -- -- -- 79
2020-03-30 22:00:00 15.9 6 Este 10 Este -- -- -- 75
2020-03-30 21:00:00 16.4 0 Calma 5 Sur -- -- -- 75
2020-03-30 20:00:00 16.9 2 Sudoeste 7 Sur -- -- -- 73
2020-03-30 19:00:00 17.6 4 Oeste 13 Sudoeste -- -- -- 73
2020-03-30 18:00:00 18.3 3 Oeste 14 Oeste -- -- -- 72
2020-03-30 17:00:00 18.6 4 Oeste 17 Oeste -- -- -- 71
2020-03-30 16:00:00 19.5 8 Sudoeste 18 Sudoeste -- -- -- 69
2020-03-30 15:00:00 19.7 4 Oeste 20 Sudoeste -- -- -- 67
2020-03-30 14:00:00 19.2 6 Oeste 17 Sudoeste -- -- -- 68
2020-03-30 13:00:00 18.6 7 Oeste 18 Sudoeste -- -- -- 70
2020-03-30 12:00:00 18.4 9 Sudoeste 19 Sudoeste -- -- -- 73
2020-03-30 11:00:00 17.9 10 Sudoeste 23 Oeste -- -- -- 77
2020-03-30 10:00:00 16.5 15 Oeste 26 Oeste -- -- -- 81
2020-03-30 09:00:00 15.2 19 Oeste 31 Noroeste -- -- -- 83
2020-03-30 08:00:00 14.4 22 Noroeste 31 Noroeste -- -- -- 82
2020-03-30 07:00:00 14.6 17 Oeste 26 Oeste -- -- -- 80
2020-03-30 06:00:00 14.7 20 Oeste 27 Oeste -- -- -- 79
2020-03-30 05:00:00 14.7 16 Oeste 30 Oeste -- -- -- 78
2020-03-30 04:00:00 14.8 18 Oeste 30 Oeste -- -- -- 76
2020-03-30 03:00:00 14.8 16 Oeste 30 Oeste -- -- -- 75
2020-03-30 02:00:00 14.9 17 Oeste 27 Oeste -- -- -- 74
2020-03-30 01:00:00 14.9 15 Oeste 26 Oeste -- -- -- 74
2020-03-30 00:00:00 15 13 Oeste 24 Sudoeste -- -- -- 73
2020-03-29 23:00:00 15 12 Oeste 20 Oeste -- -- -- 72
2020-03-29 22:00:00 15.1 9 Oeste 19 Oeste -- -- -- 72
2020-03-29 21:00:00 15.3 10 Oeste 19 Sudoeste -- -- -- 71
2020-03-29 20:00:00 15.7 7 Oeste 20 Sudoeste -- -- -- 69
2020-03-29 19:00:00 16 5 Oeste 17 Oeste -- -- -- 67
2020-03-29 18:00:00 16.4 7 Sudoeste 18 Oeste -- -- -- 66
2020-03-29 17:00:00 17.3 7 Sur 15 Sur -- -- -- 58
2020-03-29 16:00:00 17.7 6 Sudeste 15 Sudoeste -- -- -- 61
2020-03-29 15:00:00 17.6 6 Sur 14 Oeste -- -- -- 63
2020-03-29 14:00:00 18.7 5 Sudoeste 15 Sudoeste -- -- -- 63
2020-03-29 13:00:00 18.2 3 Sudoeste 6 Oeste -- -- -- 64
2020-03-29 12:00:00 17.4 4 Oeste 20 Noroeste -- -- -- 66
2020-03-29 11:00:00 16.3 9 Oeste 24 Noroeste -- -- -- 70
2020-03-29 10:00:00 14.3 18 Noroeste 27 Noroeste -- -- -- 72
2020-03-29 09:00:00 13.6 20 Noroeste 27 Noroeste -- -- -- 74
2020-03-29 08:00:00 12.8 14 Noroeste 23 Oeste -- -- -- 73
2020-03-29 07:00:00 12.1 10 Noroeste 20 Noroeste -- -- -- 73
2020-03-29 06:00:00 12.3 8 Noroeste 13 Norte -- -- -- 73
2020-03-29 05:00:00 12.4 6 Norte 8 Norte -- -- -- 73
2020-03-29 03:00:00 12.6 5 Norte 9 Noroeste -- -- -- 72
2020-03-29 01:00:00 12.7 6 Norte 9 Norte -- -- -- 72
2020-03-29 00:00:00 12.8 8 Norte 13 Norte -- -- -- 72
2020-03-28 23:00:00 13.1 10 Norte 12 Norte -- -- -- 71
2020-03-28 22:00:00 13.5 6 Norte 13 Este -- -- -- 69
2020-03-28 21:00:00 13.9 9 Este 19 Este -- -- -- 69
2020-03-28 20:00:00 13.9 14 Este 38 Este -- -- -- 69
2020-03-28 19:00:00 14 26 Este 42 Este -- -- -- 68
2020-03-28 18:00:00 14.1 33 Este 49 Este -- -- -- 66
2020-03-28 17:00:00 14 37 Este 55 Este -- -- -- 66
2020-03-28 16:00:00 14.3 36 Este 57 Este -- -- -- 64
2020-03-28 15:00:00 15.5 28 Este 51 Este -- -- -- 57
2020-03-28 14:00:00 15.8 28 Nordeste 46 Este -- -- -- 56
2020-03-28 13:00:00 15.9 28 Este 49 Nordeste -- -- -- 54
2020-03-28 12:00:00 15.3 24 Nordeste 44 Este -- -- -- 55
2020-03-28 11:00:00 14.9 24 Nordeste 49 Nordeste -- -- -- 58
2020-03-28 10:00:00 12.9 24 Norte 37 Norte -- -- -- 63
2020-03-28 09:00:00 12.9 18 Nordeste 49 Nordeste -- -- -- 66
2020-03-28 08:00:00 11.8 29 Nordeste 50 Nordeste -- -- -- 70
2020-03-28 07:00:00 11.6 26 Nordeste 44 Nordeste -- -- -- 73
2020-03-28 06:00:00 11.8 21 Norte 39 Norte -- -- -- 74
2020-03-28 05:00:00 11.9 26 Norte 40 Norte -- -- -- 74
2020-03-28 04:00:00 11.9 18 Norte 35 Noroeste -- -- -- 75
2020-03-28 03:00:00 12.9 9 Norte 31 Nordeste -- -- -- 75
2020-03-28 02:00:00 12.9 10 Nordeste 23 Nordeste -- -- -- 74
2020-03-28 01:00:00 12.6 13 Norte 22 Norte -- -- -- 74
2020-03-28 00:00:00 12.7 11 Norte 29 Nordeste -- -- -- 74
2020-03-27 23:00:00 13.1 18 Nordeste 36 Nordeste -- -- -- 75
2020-03-27 22:00:00 13.8 21 Nordeste 35 Nordeste -- -- -- 72
2020-03-27 21:00:00 13.8 23 Nordeste 33 Nordeste -- -- -- 67
2020-03-27 20:00:00 13.9 23 Nordeste 32 Nordeste -- -- -- 67
2020-03-27 19:00:00 14.1 20 Nordeste 33 Este -- -- -- 67
2020-03-27 18:00:00 14.4 19 Este 42 Este -- -- -- 66
2020-03-27 17:00:00 14.4 28 Este 41 Este -- -- -- 65
2020-03-27 16:00:00 14.7 31 Este 55 Este -- -- -- 63
2020-03-27 15:00:00 15.5 22 Este 42 Este -- -- -- 62
2020-03-27 14:00:00 15.5 25 Este 37 Este -- -- -- 61
2020-03-27 13:00:00 15 21 Este 42 Este -- -- -- 61
2020-03-27 12:00:00 15 19 Este 42 Nordeste -- -- -- 61
2020-03-27 11:00:00 14.5 26 Nordeste 47 Nordeste -- -- -- 62
2020-03-27 10:00:00 13.8 28 Este 48 Este -- -- -- 65
2020-03-27 09:00:00 13.5 27 Nordeste 50 Este -- -- -- 68
2020-03-27 08:00:00 13.4 28 Nordeste 45 Nordeste -- -- -- 68
2020-03-27 07:00:00 13.5 26 Nordeste 53 Este -- -- -- 69
2020-03-27 06:00:00 13.5 34 Este 55 Este -- -- -- 68
2020-03-27 05:00:00 13.7 27 Nordeste 51 Nordeste -- -- -- 67
2020-03-27 04:00:00 13.7 29 Nordeste 51 Nordeste -- -- -- 66
2020-03-27 03:00:00 13.7 32 Nordeste 66 Este -- -- -- 69
2020-03-27 02:00:00 14 40 Nordeste 66 Nordeste -- -- -- 71
2020-03-27 01:00:00 14.3 48 Nordeste 67 Nordeste -- -- -- 74
2020-03-27 00:00:00 14.4 46 Nordeste 64 Nordeste -- -- -- 78
2020-03-26 23:00:00 15.9 25 Nordeste 45 Nordeste -- -- -- 74
2020-03-26 22:00:00 16.2 9 Este 15 Este -- -- -- 81
2020-03-26 21:00:00 16.4 3 Este 47 Oeste -- -- -- 80
2020-03-26 20:00:00 16.4 20 Oeste 44 Noroeste -- -- -- 81
2020-03-26 19:00:00 16.7 23 Noroeste 39 Oeste -- -- -- 80
2020-03-26 18:00:00 17.1 17 Oeste 40 Sudoeste -- -- -- 78
2020-03-26 17:00:00 17.2 17 Oeste 33 Oeste -- -- -- 77
2020-03-26 16:00:00 17.7 10 Oeste 29 Sudoeste -- -- -- 74
2020-03-26 15:00:00 18.4 13 Oeste 29 Sudoeste -- -- -- 73
2020-03-26 14:00:00 18.4 7 Sudoeste 21 Sur -- -- -- 74
2020-03-26 13:00:00 17.7 10 Sudoeste 31 Sudoeste -- -- -- 77
2020-03-26 12:00:00 16.6 15 Oeste 32 Sudoeste -- -- -- 80
2020-03-26 11:00:00 15.7 19 Oeste 34 Sudoeste -- -- -- 79
2020-03-26 10:00:00 15.4 21 Oeste 34 Oeste -- -- -- 80
2020-03-26 09:00:00 14.8 19 Oeste 36 Sudoeste -- -- -- 80
2020-03-26 08:00:00 14.2 19 Oeste 35 Oeste -- -- -- 81
2020-03-26 07:00:00 13.5 18 Oeste 36 Oeste -- -- -- 80
2020-03-26 06:00:00 13.4 20 Oeste 38 Oeste -- -- -- 79
2020-03-26 05:00:00 13.6 19 Oeste 36 Oeste -- -- -- 76
2020-03-26 04:00:00 13.7 19 Oeste 40 Oeste -- -- -- 74
2020-03-26 03:00:00 13.6 25 Oeste 38 Oeste -- -- -- 74
2020-03-26 02:00:00 13.5 22 Oeste 37 Oeste -- -- -- 73
2020-03-26 01:00:00 13.4 8 Oeste 22 Sudoeste -- -- -- 71
2020-03-26 00:00:00 13.3 7 Oeste 21 Sudoeste -- -- -- 69
2020-03-25 23:00:00 13.4 6 Oeste 21 Sudoeste -- -- -- 68
2020-03-25 22:00:00 13.4 5 Oeste 17 Sudoeste -- -- -- 65
2020-03-25 21:00:00 13.5 3 Sur 12 Oeste -- -- -- 64
2020-03-25 20:00:00 13.5 3 Sudeste 10 Sudoeste -- -- -- 64
2020-03-25 19:00:00 13.7 6 Oeste 18 Oeste -- -- -- 64
2020-03-25 18:00:00 14 11 Oeste 25 Noroeste -- -- -- 66
2020-03-25 17:00:00 14.2 14 Oeste 28 Oeste -- -- -- 64
2020-03-25 16:00:00 14.5 16 Oeste 26 Oeste -- -- -- 63
2020-03-25 15:00:00 13.8 6 Este 30 Este -- -- -- 61
2020-03-25 14:00:00 13.9 21 Este 32 Este -- -- -- 59
2020-03-25 13:00:00 14 15 Nordeste 33 Este -- -- -- 58
2020-03-25 12:00:00 14.2 9 Nordeste 22 Norte -- -- -- 52
2020-03-25 11:00:00 14.2 11 Norte 40 Norte -- -- -- 56
2020-03-25 10:00:00 13.7 21 Norte 49 Norte -- -- -- 58
2020-03-25 09:00:00 13.3 13 Norte 39 Norte -- -- -- 59
2020-03-25 08:00:00 12.7 25 Norte 45 Norte -- -- -- 60
2020-03-25 07:00:00 12.3 19 Norte 54 Nordeste -- -- -- 60
2020-03-25 06:00:00 12.4 26 Norte 49 Nordeste -- -- -- 62
2020-03-25 05:00:00 12.4 28 Nordeste 62 Nordeste -- -- -- 65
2020-03-25 04:00:00 12.4 36 Nordeste 57 Nordeste -- -- -- 69
2020-03-25 03:00:00 12.6 20 Norte 51 Norte -- -- -- 70
2020-03-25 02:00:00 12.7 23 Nordeste 45 Nordeste -- -- -- 76
2020-03-25 01:00:00 12.8 25 Norte 51 Noroeste -- -- -- 79
2020-03-25 00:00:00 13.2 18 Norte 51 Noroeste -- -- -- 82
2020-03-24 23:00:00 13.5 18 Norte 44 Norte -- -- -- 81
2020-03-24 22:00:00 14 22 Nordeste 54 Nordeste -- -- -- 78
2020-03-24 21:00:00 14.3 27 Nordeste 87 Nordeste -- -- -- 77
2020-03-24 20:00:00 14.2 32 Nordeste 90 Nordeste -- -- -- 75
2020-03-24 19:00:00 14.2 34 Nordeste 87 Norte -- -- -- 76
2020-03-24 18:00:00 14 41 Nordeste 72 Norte -- -- -- 80
2020-03-24 17:00:00 14.2 33 Nordeste 69 Norte -- -- -- 83
2020-03-24 16:00:00 14.7 37 Nordeste 71 Nordeste -- -- -- 83
2020-03-24 15:00:00 14.7 30 Nordeste 63 Nordeste -- -- -- 83
2020-03-24 14:00:00 13.9 24 Nordeste 50 Norte -- -- -- 82
2020-03-24 13:00:00 14.1 27 Norte 54 Norte -- -- -- 80
2020-03-24 12:00:00 13.6 25 Norte 68 Nordeste -- -- -- 77
2020-03-24 11:00:00 15.5 31 Norte 71 Noroeste -- -- -- 69
2020-03-24 10:00:00 15 33 Norte 74 Nordeste -- -- -- 70
2020-03-24 09:00:00 15.2 40 Norte 75 Norte -- -- -- 68
2020-03-24 08:00:00 15.1 41 Nordeste 91 Nordeste -- -- -- 68
2020-03-24 07:00:00 15.1 41 Nordeste 79 Norte -- -- -- 70
2020-03-24 06:00:00 15 44 Nordeste 77 Norte -- -- -- 71
2020-03-24 05:00:00 15.5 43 Norte 74 Norte -- -- -- 64
2020-03-24 04:00:00 14.7 36 Norte 70 Norte -- -- -- 65
2020-03-24 03:00:00 14.9 41 Norte 82 Nordeste -- -- -- 64
2020-03-24 02:00:00 14.9 44 Norte 77 Nordeste -- -- -- 67
2020-03-24 01:00:00 15.4 46 Nordeste 78 Norte -- -- -- 66
2020-03-24 00:00:00 15.3 44 Nordeste 73 Norte -- -- -- 67
2020-03-23 23:00:00 14.8 41 Nordeste 75 Nordeste -- -- -- 76
2020-03-23 22:00:00 15.4 42 Norte 75 Nordeste -- -- -- 74
2020-03-23 21:00:00 15.2 39 Nordeste 64 Norte -- -- -- 75
2020-03-23 20:00:00 15.4 36 Nordeste 81 Nordeste -- -- -- 72
2020-03-23 19:00:00 15.7 30 Nordeste 53 Nordeste -- -- -- 66
2020-03-23 18:00:00 15.5 25 Norte 41 Norte -- -- -- 70
2020-03-23 17:00:00 15.3 19 Norte 39 Norte -- -- -- 74
2020-03-23 16:00:00 14.9 24 Nordeste 50 Nordeste -- -- -- 77
2020-03-23 15:00:00 14.6 28 Nordeste 50 Nordeste -- -- -- 75
2020-03-23 14:00:00 15.4 27 Nordeste 47 Nordeste -- -- -- 66
2020-03-23 13:00:00 16.6 17 Nordeste 35 Nordeste -- -- -- 62
2020-03-23 12:00:00 15.9 16 Nordeste 29 Nordeste -- -- -- 66
2020-03-23 11:00:00 15.4 12 Nordeste 29 Nordeste -- -- -- 72
2020-03-23 10:00:00 13.9 4 Oeste 27 Norte -- -- -- 76
2020-03-23 09:00:00 13.3 10 Norte 34 Nordeste -- -- -- 80
2020-03-23 08:00:00 12.8 15 Norte 27 Nordeste -- -- -- 81
2020-03-23 07:00:00 12.6 6 Norte 17 Nordeste -- -- -- 82
2020-03-23 06:00:00 12.4 5 Norte 13 Noroeste -- -- -- 82
2020-03-23 05:00:00 12.3 5 Norte 11 Norte -- -- -- 82
2020-03-23 04:00:00 12.2 9 Norte 13 Norte -- -- -- 82
2020-03-23 03:00:00 12.6 6 Norte 10 Norte -- -- -- 82
2020-03-23 02:00:00 12.6 8 Norte 10 Norte -- -- -- 82
2020-03-23 01:00:00 12.8 3 Nordeste 12 Norte -- -- -- 82
2020-03-23 00:00:00 12.9 0 Calma 11 Norte -- -- -- 82
2020-03-22 23:00:00 12.9 5 Noroeste 9 Norte -- -- -- 82
2020-03-22 22:00:00 13.1 0 Calma 6 Sur -- -- -- 82
2020-03-22 21:00:00 13.1 0 Calma 6 Sudoeste -- -- -- 82
2020-03-22 20:00:00 13.4 3 Sudoeste 11 Oeste -- -- -- 82
2020-03-22 19:00:00 13.6 7 Oeste 13 Noroeste -- -- -- 82
2020-03-22 18:00:00 13.7 4 Oeste 7 Sudoeste -- -- -- 82
2020-03-22 17:00:00 13.5 2 Sur 6 Este -- -- -- 83
2020-03-22 16:00:00 13.4 2 Sudeste 9 Este -- -- -- 85
2020-03-22 15:00:00 13 8 Este 21 Este -- -- -- 87
2020-03-22 14:00:00 13 5 Este 14 Este -- -- -- 85
2020-03-22 13:00:00 12.4 8 Este 19 Este -- -- -- 84
2020-03-22 12:00:00 12.8 8 Este 14 Este -- -- -- 82
2020-03-22 11:00:00 12.1 3 Este 13 Norte -- -- -- 81
2020-03-22 10:00:00 11.9 8 Norte 27 Noroeste -- -- -- 80
2020-03-22 09:00:00 11.9 13 Noroeste 22 Oeste -- -- -- 80
2020-03-22 08:00:00 11.9 8 Noroeste 26 Noroeste -- -- -- 78
2020-03-22 07:00:00 12.5 15 Noroeste 38 Noroeste -- -- -- 76
2020-03-22 06:00:00 13.4 22 Oeste 37 Oeste -- -- -- 72
2020-03-22 05:00:00 13.5 18 Oeste 24 Oeste -- -- -- 71
2020-03-22 04:00:00 13.7 12 Sudoeste 23 Sudoeste -- -- -- 72
2020-03-22 03:00:00 13.6 13 Oeste 44 Oeste -- -- -- 74
2020-03-22 02:00:00 14.1 30 Oeste 41 Sudoeste -- -- -- 72
2020-03-22 01:00:00 14.6 17 Oeste 37 Sudoeste -- -- -- 71
2020-03-22 00:00:00 14.5 14 Oeste 37 Oeste -- -- -- 70
2020-03-21 23:00:00 14.5 33 Oeste 62 Oeste -- -- -- 69
2020-03-21 22:00:00 14.7 48 Oeste 68 Oeste -- -- -- 68
2020-03-21 21:00:00 14.6 28 Oeste 57 Oeste -- -- -- 73
2020-03-21 20:00:00 15.5 35 Oeste 60 Sudoeste -- -- -- 71
2020-03-21 19:00:00 15.7 23 Oeste 41 Sudoeste -- -- -- 69
2020-03-21 18:00:00 15.9 12 Oeste 33 Sudoeste -- -- -- 69
2020-03-21 17:00:00 15.8 20 Oeste 36 Oeste -- -- -- 67
2020-03-21 16:00:00 16.6 18 Oeste 37 Sudoeste -- -- -- 68
2020-03-21 15:00:00 16.9 11 Oeste 29 Sudoeste -- -- -- 70
2020-03-21 14:00:00 16.4 10 Oeste 29 Sudoeste -- -- -- 72
2020-03-21 13:00:00 15.6 6 Sudeste 28 Oeste -- -- -- 72
2020-03-21 12:00:00 15.5 19 Oeste 53 Norte -- -- -- 72
2020-03-21 11:00:00 12.8 29 Noroeste 66 Noroeste -- -- -- 76
2020-03-21 10:00:00 12.1 26 Noroeste 49 Oeste -- -- -- 82
2020-03-21 09:00:00 14.8 25 Este 55 Este -- -- -- 77
2020-03-21 08:00:00 14.7 38 Nordeste 56 Este -- -- -- 73
2020-03-21 07:00:00 14.9 35 Nordeste 51 Nordeste -- -- -- 71
2020-03-21 06:00:00 15 25 Nordeste 48 Nordeste -- -- -- 70
2020-03-21 05:00:00 14.9 33 Nordeste 51 Nordeste -- -- -- 69
2020-03-21 04:00:00 15.1 26 Nordeste 45 Nordeste -- -- -- 70
2020-03-21 03:00:00 14.9 16 Norte 31 Norte -- -- -- 74
2020-03-21 02:00:00 14.9 17 Nordeste 31 Nordeste -- -- -- 76
2020-03-21 01:00:00 14.9 18 Norte 40 Nordeste -- -- -- 77
2020-03-21 00:00:00 15.3 16 Nordeste 34 Este -- -- -- 75
2020-03-20 23:00:00 15.4 14 Norte 33 Nordeste -- -- -- 75
2020-03-20 22:00:00 15.3 17 Nordeste 39 Nordeste -- -- -- 76
2020-03-20 21:00:00 15.3 10 Nordeste 51 Nordeste -- -- -- 75
2020-03-20 20:00:00 15.3 35 Nordeste 63 Nordeste -- -- -- 74
2020-03-20 19:00:00 15.4 45 Nordeste 80 Nordeste -- -- -- 72
2020-03-20 18:00:00 15.9 49 Nordeste 80 Este -- -- -- 69
2020-03-20 17:00:00 16.3 47 Nordeste 68 Nordeste -- -- -- 66
2020-03-20 16:00:00 17 42 Nordeste 74 Nordeste -- -- -- 63
2020-03-20 15:00:00 17.8 15 Nordeste 45 Nordeste -- -- -- 63
2020-03-20 14:00:00 16 28 Nordeste 52 Norte -- -- -- 69
2020-03-20 13:00:00 15.9 10 Nordeste 43 Norte -- -- -- 71
2020-03-20 12:00:00 15.3 14 Norte 44 Noroeste -- -- -- 70
2020-03-20 11:00:00 15.3 28 Norte 57 Nordeste -- -- -- 66
2020-03-20 10:00:00 15.4 22 Nordeste 42 Nordeste -- -- -- 65
2020-03-20 09:00:00 15.2 24 Nordeste 52 Norte -- -- -- 65
2020-03-20 08:00:00 14.9 16 Nordeste 43 Norte -- -- -- 65
2020-03-20 07:00:00 15 9 Norte 48 Nordeste -- -- -- 64
2020-03-20 06:00:00 15.1 18 Norte 62 Nordeste -- -- -- 63
2020-03-20 05:00:00 15.1 29 Norte 60 Nordeste -- -- -- 63
2020-03-20 04:00:00 15 33 Norte 62 Norte -- -- -- 62
2020-03-20 03:00:00 14.9 13 Nordeste 41 Nordeste -- -- -- 62
2020-03-20 02:00:00 15.1 15 Norte 54 Nordeste -- -- -- 62
2020-03-20 01:00:00 15.1 23 Norte 54 Nordeste -- -- -- 64
2020-03-20 00:00:00 15.4 30 Nordeste 73 Norte -- -- -- 62
2020-03-19 23:00:00 15.4 38 Nordeste 77 Nordeste -- -- -- 63
2020-03-19 22:00:00 15.5 39 Nordeste 75 Norte -- -- -- 62
2020-03-19 21:00:00 15.6 37 Nordeste 68 Nordeste -- -- -- 65
2020-03-19 20:00:00 15.6 38 Nordeste 71 Nordeste -- -- -- 70
2020-03-19 19:00:00 16 40 Nordeste 72 Nordeste -- -- -- 68
2020-03-19 18:00:00 16.6 33 Nordeste 72 Nordeste -- -- -- 65
2020-03-19 17:00:00 16.9 41 Nordeste 87 Nordeste -- -- -- 63
2020-03-19 16:00:00 17.5 45 Nordeste 89 Nordeste -- -- -- 61
2020-03-19 15:00:00 17.7 51 Nordeste 85 Nordeste -- -- -- 62
2020-03-19 14:00:00 17.6 45 Nordeste 78 Nordeste -- -- -- 61
2020-03-19 13:00:00 18.1 33 Nordeste 76 Este -- -- -- 59
2020-03-19 12:00:00 17.4 31 Norte 74 Nordeste -- -- -- 62
2020-03-19 11:00:00 17 35 Nordeste 78 Este -- -- -- 63
2020-03-19 10:00:00 16.3 39 Nordeste 86 Nordeste -- -- -- 65
2020-03-19 09:00:00 16.1 37 Nordeste 83 Nordeste -- -- -- 65
2020-03-19 08:00:00 15.7 36 Nordeste 73 Este -- -- -- 65
2020-03-19 07:00:00 15.6 30 Nordeste 56 Norte -- -- -- 65
2020-03-19 06:00:00 15.6 21 Nordeste 51 Nordeste -- -- -- 66
2020-03-19 05:00:00 15.7 23 Norte 53 Norte -- -- -- 66
2020-03-19 04:00:00 15.8 21 Norte 72 Norte -- -- -- 65
2020-03-19 03:00:00 15.9 27 Norte 62 Norte -- -- -- 66
2020-03-19 02:00:00 15.9 26 Nordeste 57 Norte -- -- -- 67
2020-03-19 01:00:00 15.9 26 Norte 54 Norte -- -- -- 67
2020-03-19 00:00:00 15.7 24 Norte 57 Este -- -- -- 70
2020-03-18 23:00:00 15.8 31 Nordeste 62 Nordeste -- -- -- 71
2020-03-18 22:00:00 15.8 33 Nordeste 73 Nordeste -- -- -- 72
2020-03-18 21:00:00 15.7 36 Nordeste 72 Nordeste -- -- -- 73
2020-03-18 20:00:00 15.8 30 Nordeste 80 Nordeste -- -- -- 73
2020-03-18 19:00:00 16 39 Nordeste 78 Nordeste -- -- -- 72
2020-03-18 18:00:00 16.6 26 Nordeste 69 Este -- -- -- 69
2020-03-18 17:00:00 17.2 36 Nordeste 69 Este -- -- -- 64
2020-03-18 16:00:00 18 36 Nordeste 84 Nordeste -- -- -- 59
2020-03-18 15:00:00 18.1 38 Nordeste 74 Nordeste -- -- -- 61
2020-03-18 14:00:00 18.2 37 Nordeste 79 Nordeste -- -- -- 62
2020-03-18 13:00:00 17.4 37 Nordeste 70 Nordeste -- -- -- 65
2020-03-18 12:00:00 17.2 37 Nordeste 78 Nordeste -- -- -- 69
2020-03-18 11:00:00 15.9 30 Nordeste 72 Nordeste -- -- -- 73
2020-03-18 10:00:00 15.4 36 Nordeste 66 Nordeste -- -- -- 77
2020-03-18 09:00:00 14.8 31 Nordeste 78 Nordeste -- -- -- 78
2020-03-18 08:00:00 15.4 35 Nordeste 77 Nordeste -- -- -- 75
2020-03-18 07:00:00 15.5 34 Nordeste 66 Nordeste -- -- -- 74
2020-03-18 06:00:00 15.4 31 Nordeste 74 Nordeste -- -- -- 76
2020-03-18 05:00:00 15.3 37 Nordeste 69 Nordeste -- -- -- 79
2020-03-18 04:00:00 14.9 33 Nordeste 66 Nordeste -- -- -- 82
2020-03-18 03:00:00 15.2 33 Norte 65 Nordeste -- -- -- 81
2020-03-18 02:00:00 15.4 30 Nordeste 68 Nordeste -- -- -- 80
2020-03-18 01:00:00 15.6 36 Nordeste 73 Nordeste -- -- -- 80
2020-03-18 00:00:00 15.9 37 Nordeste 66 Nordeste -- -- -- 80
2020-03-17 23:00:00 16.3 30 Nordeste 89 Nordeste -- -- -- 77
2020-03-17 22:00:00 16.5 36 Nordeste 90 Nordeste -- -- -- 78
2020-03-17 21:00:00 16.6 31 Nordeste 71 Nordeste -- -- -- 77
2020-03-17 20:00:00 16.5 34 Nordeste 80 Nordeste -- -- -- 74
2020-03-17 19:00:00 16.7 28 Nordeste 57 Este -- -- -- 66
2020-03-17 18:00:00 17.1 24 Nordeste 57 Nordeste -- -- -- 61
2020-03-17 17:00:00 16.8 16 Nordeste 39 Nordeste -- -- -- 61
2020-03-17 16:00:00 15.7 22 Nordeste 35 Este -- -- -- 71
2020-03-17 15:00:00 15.2 22 Este 48 Nordeste -- -- -- 72
2020-03-17 14:00:00 15 31 Nordeste 48 Nordeste -- -- -- 71
2020-03-17 13:00:00 15.7 27 Este 56 Este -- -- -- 70
2020-03-17 12:00:00 16.5 15 Nordeste 40 Este -- -- -- 62
2020-03-17 11:00:00 16.9 16 Este 33 Este -- -- -- 58
2020-03-17 10:00:00 15.6 19 Nordeste 30 Nordeste -- -- -- 58
2020-03-17 09:00:00 14.5 19 Nordeste 30 Nordeste -- -- -- 61
2020-03-17 08:00:00 13.7 18 Nordeste 30 Nordeste -- -- -- 65
2020-03-17 07:00:00 13.5 20 Nordeste 32 Nordeste -- -- -- 64
2020-03-17 06:00:00 13.5 21 Nordeste 30 Nordeste -- -- -- 65
2020-03-17 05:00:00 13.3 20 Nordeste 30 Nordeste -- -- -- 63
2020-03-17 04:00:00 13.4 19 Nordeste 31 Nordeste -- -- -- 62
2020-03-17 03:00:00 13.5 14 Nordeste 19 Nordeste -- -- -- 60
2020-03-17 02:00:00 14.1 9 Noroeste 22 Oeste -- -- -- 55
2020-03-17 01:00:00 14.8 12 Oeste 30 Sudoeste -- -- -- 55
2020-03-17 00:00:00 15.1 15 Oeste 28 Oeste -- -- -- 54
2020-03-16 23:00:00 15.1 7 Oeste 22 Oeste -- -- -- 55
2020-03-16 22:00:00 15.2 8 Sudoeste 24 Oeste -- -- -- 53
2020-03-16 21:00:00 15.4 15 Oeste 41 Sudoeste -- -- -- 58
2020-03-16 20:00:00 15.7 20 Oeste 36 Oeste -- -- -- 54
2020-03-16 19:00:00 15.7 20 Oeste 46 Sudoeste -- -- -- 60
2020-03-16 18:00:00 15.8 12 Sudeste 40 Sudoeste -- -- -- 59
2020-03-16 17:00:00 15.8 16 Oeste 37 Sudoeste -- -- -- 57
2020-03-16 16:00:00 16.2 15 Sur 34 Sur -- -- -- 59
2020-03-16 15:00:00 15.9 16 Sudoeste 36 Sudoeste -- -- -- 60
2020-03-16 14:00:00 17.2 14 Sur 33 Noroeste -- -- -- 65
2020-03-16 13:00:00 16.7 12 Sudoeste 31 Oeste -- -- -- 80
2020-03-16 12:00:00 17.5 12 Sudeste 31 Oeste -- -- -- 84
2020-03-16 11:00:00 16.3 10 Sudoeste 31 Sudoeste -- -- -- 84
2020-03-16 10:00:00 16 6 Oeste 30 Oeste -- -- -- 83
2020-03-16 09:00:00 16 10 Sudeste 24 Sudoeste -- -- -- 83
2020-03-16 08:00:00 15.6 6 Sudeste 22 Sudoeste -- -- -- 83
2020-03-16 07:00:00 15.1 8 Sudoeste 28 Sudoeste -- -- -- 83
2020-03-16 06:00:00 15.1 16 Sudoeste 30 Sudoeste -- -- -- 83
2020-03-16 05:00:00 15.2 17 Oeste 27 Oeste -- -- -- 84
2020-03-16 04:00:00 15.1 16 Oeste 26 Noroeste -- -- -- 84
2020-03-16 03:00:00 15.2 9 Noroeste 19 Oeste -- -- -- 83
2020-03-16 02:00:00 15.5 10 Oeste 16 Oeste -- -- -- 82
2020-03-16 01:00:00 15.8 4 Oeste 8 Oeste -- -- -- 82
2020-03-16 00:00:00 15.8 2 Sudeste 6 Sudeste -- -- -- 82
2020-03-15 23:00:00 15.7 4 Sudeste 11 Oeste -- -- -- 81
2020-03-15 22:00:00 15.8 4 Sudeste 13 Nordeste -- -- -- 81
2020-03-15 21:00:00 15.7 7 Este 31 Este -- -- -- 80
2020-03-15 20:00:00 15.6 26 Este 38 Este -- -- -- 79
2020-03-15 19:00:00 17 15 Este 38 Este -- -- -- 72
2020-03-15 18:00:00 15.7 14 Nordeste 26 Este -- -- -- 78
2020-03-15 17:00:00 16.4 10 Este 24 Noroeste -- -- -- 76
2020-03-15 16:00:00 16.4 6 Este 25 Este -- -- -- 77
2020-03-15 15:00:00 16.5 19 Este 31 Este -- -- -- 76
2020-03-15 14:00:00 16.7 28 Este 46 Este -- -- -- 73
2020-03-15 13:00:00 17.1 32 Este 42 Este -- -- -- 70
2020-03-15 12:00:00 16.9 35 Este 48 Este -- -- -- 70
2020-03-15 11:00:00 17.4 24 Este 41 Este -- -- -- 70
2020-03-15 10:00:00 16.3 26 Nordeste 44 Este -- -- -- 74
2020-03-15 09:00:00 16 22 Nordeste 34 Nordeste -- -- -- 79
2020-03-15 08:00:00 14.6 4 Oeste 13 Nordeste -- -- -- 81
2020-03-15 07:00:00 14.7 4 Norte 17 Nordeste -- -- -- 81
2020-03-15 06:00:00 14.6 6 Norte 12 Norte -- -- -- 81
2020-03-15 05:00:00 14.7 2 Oeste 18 Noroeste -- -- -- 80
2020-03-15 04:00:00 14.8 8 Norte 19 Noroeste -- -- -- 79
2020-03-15 03:00:00 14.9 6 Noroeste 19 Noroeste -- -- -- 79
2020-03-15 02:00:00 15 4 Noroeste 10 Nordeste -- -- -- 78
2020-03-15 01:00:00 15.3 3 Norte 13 Este -- -- -- 78
2020-03-15 00:00:00 15.5 6 Nordeste 17 Nordeste -- -- -- 77
2020-03-14 23:00:00 15.6 7 Nordeste 29 Nordeste -- -- -- 78
2020-03-14 22:00:00 15.6 9 Nordeste 26 Nordeste -- -- -- 79
2020-03-14 21:00:00 15.5 4 Norte 26 Nordeste -- -- -- 80
2020-03-14 20:00:00 15.6 20 Nordeste 41 Este -- -- -- 81
2020-03-14 19:00:00 16 23 Este 37 Este -- -- -- 81
2020-03-14 18:00:00 16.1 29 Este 41 Este -- -- -- 82
2020-03-14 17:00:00 16.2 33 Este 42 Este -- -- -- 81
2020-03-14 16:00:00 16.3 35 Este 56 Este -- -- -- 80
2020-03-14 15:00:00 16.8 31 Este 39 Este -- -- -- 79
2020-03-14 14:00:00 17.2 32 Este 37 Este -- -- -- 76
2020-03-14 13:00:00 17.3 30 Este 37 Este -- -- -- 75
2020-03-14 12:00:00 17.4 29 Este 37 Este -- -- -- 75
2020-03-14 11:00:00 17.4 26 Este 38 Este -- -- -- 74
2020-03-14 10:00:00 17.4 5 Este 18 Este -- -- -- 74
2020-03-14 09:00:00 16.5 0 Calma 12 Nordeste -- -- -- 78
2020-03-14 08:00:00 15.3 3 Norte 20 Este -- -- -- 79
2020-03-14 07:00:00 15.1 5 Nordeste 13 Nordeste -- -- -- 80
2020-03-14 06:00:00 15.2 4 Norte 12 Nordeste -- -- -- 79
2020-03-14 05:00:00 15.2 3 Norte 7 Norte -- -- -- 79
2020-03-14 04:00:00 15.3 4 Nordeste 10 Este -- -- -- 79
2020-03-14 03:00:00 15.6 5 Nordeste 27 Nordeste -- -- -- 79
2020-03-14 02:00:00 15.7 18 Nordeste 30 Nordeste -- -- -- 78
2020-03-14 01:00:00 15.9 17 Este 31 Nordeste -- -- -- 77
2020-03-14 00:00:00 15.9 15 Nordeste 28 Nordeste -- -- -- 75
2020-03-13 23:00:00 16.1 9 Este 19 Este -- -- -- 74
2020-03-13 22:00:00 16.2 10 Nordeste 23 Este -- -- -- 74
2020-03-13 21:00:00 16.3 13 Este 25 Este -- -- -- 74
2020-03-13 20:00:00 16.7 12 Este 32 Este -- -- -- 73
2020-03-13 19:00:00 17 14 Este 36 Nordeste -- -- -- 73
2020-03-13 18:00:00 17.3 21 Este 37 Nordeste -- -- -- 73
2020-03-13 17:00:00 17.8 25 Este 41 Sudeste -- -- -- 72
2020-03-13 16:00:00 17.9 28 Este 55 Este -- -- -- 72
2020-03-13 15:00:00 18.6 28 Este 53 Nordeste -- -- -- 70
2020-03-13 14:00:00 18.2 39 Este 49 Este -- -- -- 72
2020-03-13 13:00:00 18.9 35 Este 44 Este -- -- -- 69
2020-03-13 12:00:00 18.8 30 Este 46 Este -- -- -- 67
2020-03-13 11:00:00 19.5 29 Este 45 Este -- -- -- 54
2020-03-13 10:00:00 19.3 26 Este 34 Este -- -- -- 58
2020-03-13 09:00:00 18.5 10 Este 15 Este -- -- -- 54
2020-03-13 08:00:00 17.5 7 Noroeste 14 Oeste -- -- -- 52
2020-03-13 07:00:00 17.9 7 Noroeste 16 Noroeste -- -- -- 49
2020-03-13 06:00:00 17.3 10 Noroeste 19 Noroeste -- -- -- 54
2020-03-13 05:00:00 18.2 10 Noroeste 18 Noroeste -- -- -- 51
2020-03-13 04:00:00 18 10 Noroeste 18 Noroeste -- -- -- 51
2020-03-13 03:00:00 16.8 9 Noroeste 13 Noroeste -- -- -- 55
2020-03-13 02:00:00 16.8 6 Noroeste 8 Noroeste -- -- -- 56
2020-03-13 01:00:00 17.1 0 Calma 7 Norte -- -- -- 60
2020-03-13 00:00:00 17.3 5 Este 14 Norte -- -- -- 62
2020-03-12 23:00:00 17.1 6 Noroeste 9 Noroeste -- -- -- 64
2020-03-12 22:00:00 17.9 7 Este 14 Norte -- -- -- 63
2020-03-12 21:00:00 17.7 2 Nordeste 10 Este -- -- -- 68
2020-03-12 20:00:00 18.3 4 Este 14 Este -- -- -- 65
2020-03-12 19:00:00 19.6 6 Nordeste 10 Sudoeste -- -- -- 63
2020-03-12 18:00:00 20.8 2 Este 8 Sudoeste -- -- -- 54
2020-03-12 17:00:00 21.6 4 Oeste 33 Este -- -- -- 53
2020-03-12 16:00:00 23.1 24 Este 39 Este -- -- -- 39
2020-03-12 15:00:00 22.2 31 Este 40 Este -- -- -- 41
2020-03-12 14:00:00 21.7 32 Este 41 Este -- -- -- 44
2020-03-12 13:00:00 23.8 24 Este 34 Este -- -- -- 38
2020-03-12 12:00:00 22.7 21 Este 31 Este -- -- -- 44
2020-03-12 11:00:00 21.3 3 Sudoeste 13 Oeste -- -- -- 52
2020-03-12 10:00:00 19.2 4 Oeste 9 Oeste -- -- -- 60
2020-03-12 09:00:00 18.4 6 Noroeste 8 Oeste -- -- -- 64
2020-03-12 08:00:00 18.8 4 Sur 19 Este -- -- -- 53
2020-03-12 07:00:00 21.2 8 Norte 31 Nordeste -- -- -- 37
2020-03-12 06:00:00 16.4 3 Nordeste 10 Este -- -- -- 58
2020-03-12 05:00:00 16.9 5 Este 10 Sudoeste -- -- -- 55
2020-03-12 04:00:00 16.7 5 Oeste 8 Oeste -- -- -- 62
2020-03-12 03:00:00 18.4 4 Oeste 14 Oeste -- -- -- 42
2020-03-12 02:00:00 18.9 4 Oeste 23 Este -- -- -- 47
2020-03-12 01:00:00 20.2 10 Este 22 Este -- -- -- 34
2020-03-12 00:00:00 20.2 12 Este 23 Este -- -- -- 37
2020-03-11 23:00:00 20 15 Este 24 Este -- -- -- 40
2020-03-11 22:00:00 18.5 9 Este 22 Este -- -- -- 48
2020-03-11 21:00:00 18.3 4 Este 6 Este -- -- -- 47
2020-03-11 20:00:00 18.5 3 Este 4 Este -- -- -- 46
2020-03-11 19:00:00 18.6 2 Este 6 Oeste -- -- -- 47
2020-03-11 18:00:00 19 4 Oeste 16 Oeste -- -- -- 48
2020-03-11 17:00:00 19.9 10 Oeste 21 Oeste -- -- -- 42
2020-03-11 16:00:00 21.3 10 Oeste 22 Noroeste -- -- -- 37
2020-03-11 15:00:00 21.7 11 Oeste 20 Oeste -- -- -- 40
2020-03-11 14:00:00 21.2 11 Oeste 17 Oeste -- -- -- 48
2020-03-11 13:00:00 21.5 9 Oeste 15 Oeste -- -- -- 51
2020-03-11 12:00:00 21.5 7 Sudoeste 14 Oeste -- -- -- 49
2020-03-11 11:00:00 20.2 13 Oeste 21 Oeste -- -- -- 51
2020-03-11 10:00:00 18.8 8 Oeste 15 Oeste -- -- -- 52
2020-03-11 09:00:00 17.5 7 Oeste 13 Oeste -- -- -- 53
2020-03-11 08:00:00 15.5 10 Oeste 17 Noroeste -- -- -- 61
2020-03-11 07:00:00 15.1 9 Oeste 18 Oeste -- -- -- 63
2020-03-11 06:00:00 15.3 11 Oeste 24 Noroeste -- -- -- 59
2020-03-11 05:00:00 16.3 16 Oeste 30 Noroeste -- -- -- 54
2020-03-11 04:00:00 16.6 15 Noroeste 27 Noroeste -- -- -- 54
2020-03-11 03:00:00 16.1 12 Noroeste 20 Noroeste -- -- -- 51
2020-03-11 02:00:00 16.5 9 Oeste 21 Norte -- -- -- 58
2020-03-11 01:00:00 16.9 13 Noroeste 25 Noroeste -- -- -- 46
2020-03-11 00:00:00 16.2 13 Noroeste 22 Noroeste -- -- -- 47
2020-03-10 23:00:00 15.8 10 Noroeste 21 Noroeste -- -- -- 53
2020-03-10 22:00:00 15.5 7 Noroeste 14 Noroeste -- -- -- 56
2020-03-10 21:00:00 15.8 4 Noroeste 10 Noroeste -- -- -- 56
2020-03-10 20:00:00 16.3 3 Este 9 Sudeste -- -- -- 62
2020-03-10 19:00:00 16.2 4 Este 13 Este -- -- -- 69
2020-03-10 18:00:00 16.5 8 Este 16 Este -- -- -- 71
2020-03-10 17:00:00 16.6 12 Este 22 Este -- -- -- 71
2020-03-10 16:00:00 16.9 17 Este 27 Este -- -- -- 71
2020-03-10 15:00:00 17.2 24 Este 34 Este -- -- -- 70
2020-03-10 14:00:00 17.6 24 Este 36 Este -- -- -- 69
2020-03-10 13:00:00 17.6 25 Este 38 Este -- -- -- 70
2020-03-10 12:00:00 17.7 27 Este 45 Este -- -- -- 67
2020-03-10 11:00:00 18.7 24 Este 45 Nordeste -- -- -- 56
2020-03-10 10:00:00 18.2 31 Nordeste 45 Nordeste -- -- -- 48
2020-03-10 09:00:00 17.3 12 Este 23 Este -- -- -- 68
2020-03-10 08:00:00 15.4 0 Calma 7 Norte -- -- -- 66
2020-03-10 07:00:00 15.2 3 Sudeste 10 Noroeste -- -- -- 64
2020-03-10 06:00:00 14.9 4 Noroeste 15 Norte -- -- -- 64
2020-03-10 05:00:00 15 6 Nordeste 15 Este -- -- -- 69
2020-03-10 04:00:00 15.4 7 Oeste 40 Este -- -- -- 67
2020-03-10 03:00:00 15.6 16 Nordeste 38 Este -- -- -- 68
2020-03-10 02:00:00 15.6 10 Este 24 Este -- -- -- 69
2020-03-10 01:00:00 15.7 15 Este 27 Este -- -- -- 67
2020-03-10 00:00:00 15.5 2 Noroeste 10 Este -- -- -- 63
2020-03-09 23:00:00 15.8 4 Noroeste 14 Nordeste -- -- -- 66
2020-03-09 22:00:00 16 3 Oeste 18 Este -- -- -- 65
2020-03-09 21:00:00 16.1 3 Nordeste 14 Este -- -- -- 72
2020-03-09 20:00:00 16.5 10 Este 26 Este -- -- -- 73
2020-03-09 19:00:00 16.9 19 Este 33 Este -- -- -- 71
2020-03-09 18:00:00 17.3 26 Este 31 Este -- -- -- 65
2020-03-09 17:00:00 18.4 12 Este 18 Este -- -- -- 60
2020-03-09 16:00:00 19.5 6 Este 15 Este -- -- -- 50
2020-03-09 15:00:00 19.8 12 Este 14 Este -- -- -- 53
2020-03-09 14:00:00 20.1 7 Este 18 Este -- -- -- 62
2020-03-09 13:00:00 18.6 12 Este 19 Este -- -- -- 78
2020-03-09 12:00:00 17.9 15 Este 26 Este -- -- -- 81
2020-03-09 11:00:00 17 18 Este 31 Este -- -- -- 83
2020-03-09 10:00:00 16.5 5 Sudeste 21 Este -- -- -- 83
2020-03-09 09:00:00 15.7 0 Calma 6 Oeste -- -- -- 87
2020-03-09 08:00:00 14.8 0 Calma 14 Noroeste -- -- -- 88
2020-03-09 07:00:00 14.1 8 Oeste 12 Noroeste -- -- -- 87
2020-03-09 06:00:00 14.5 6 Oeste 18 Noroeste -- -- -- 86
2020-03-09 05:00:00 14.6 10 Oeste 18 Oeste -- -- -- 86
2020-03-09 04:00:00 14.7 9 Oeste 31 Oeste -- -- -- 86
2020-03-09 03:00:00 14.9 21 Oeste 37 Noroeste -- -- -- 85
2020-03-09 02:00:00 15 27 Oeste 43 Oeste -- -- -- 84
2020-03-09 01:00:00 15.2 26 Oeste 39 Oeste -- -- -- 83
2020-03-09 00:00:00 15.1 20 Oeste 31 Oeste -- -- -- 81